createdAt,value
2017-11-07T00:01:55.649Z,13.33
2017-11-07T00:04:23.162Z,16.60
2017-11-07T00:06:51.490Z,14.57
2017-11-07T00:09:19.075Z,14.10
2017-11-07T00:11:46.577Z,10.90
2017-11-07T00:14:14.106Z,12.03
2017-11-07T00:16:41.617Z,9.40
2017-11-07T00:19:09.117Z,9.93
2017-11-07T00:21:36.651Z,11.63
2017-11-07T00:24:04.156Z,11.97
2017-11-07T00:26:32.426Z,10.70
2017-11-07T00:28:59.970Z,10.83
2017-11-07T00:31:27.479Z,12.90
2017-11-07T00:33:54.990Z,11.03
2017-11-07T00:36:22.525Z,10.10
2017-11-07T00:38:50.033Z,13.10
2017-11-07T00:41:18.343Z,9.63
2017-11-07T00:43:45.861Z,12.50
2017-11-07T00:46:13.360Z,9.60
2017-11-07T00:48:40.905Z,12.57
2017-11-07T00:51:09.175Z,10.80
2017-11-07T00:53:37.444Z,12.00
2017-11-07T00:56:05.005Z,12.83
2017-11-07T00:58:33.276Z,21.13
2017-11-07T01:01:01.582Z,14.33
2017-11-07T01:03:29.113Z,12.43
2017-11-07T01:05:56.620Z,11.90
2017-11-07T01:08:24.125Z,12.90
2017-11-07T01:10:51.656Z,9.87
2017-11-07T01:13:19.165Z,10.40
2017-11-07T01:15:47.452Z,9.33
2017-11-07T01:18:14.980Z,11.80
2017-11-07T01:20:42.492Z,12.53
2017-11-07T01:23:10.019Z,10.73
2017-11-07T01:25:37.520Z,13.40
2017-11-07T01:28:05.049Z,10.97
2017-11-07T01:30:33.330Z,12.07
2017-11-07T01:33:00.829Z,11.80
2017-11-07T01:35:28.369Z,14.57
2017-11-07T01:37:55.877Z,11.50
2017-11-07T01:40:23.386Z,10.20
2017-11-07T01:42:50.920Z,9.63
2017-11-07T01:45:19.263Z,10.43
2017-11-07T01:47:46.797Z,10.67
2017-11-07T01:50:14.296Z,12.07
2017-11-07T01:52:41.805Z,10.47
2017-11-07T01:55:09.326Z,9.77
2017-11-07T01:57:37.613Z,9.50
2017-11-07T02:00:05.889Z,13.90
2017-11-07T02:02:34.207Z,9.90
2017-11-07T02:05:01.770Z,9.00
2017-11-07T02:07:29.281Z,9.40
2017-11-07T02:09:57.585Z,9.10
2017-11-07T02:12:25.356Z,10.23
2017-11-07T02:14:52.864Z,8.53
2017-11-07T02:17:20.404Z,8.07
2017-11-07T02:19:47.921Z,10.40
2017-11-07T02:22:15.435Z,10.30
2017-11-07T02:24:42.988Z,10.27
2017-11-07T02:27:10.493Z,8.83
2017-11-07T02:29:38.001Z,8.77
2017-11-07T02:32:05.534Z,9.77
2017-11-07T02:34:33.037Z,9.70
2017-11-07T02:37:00.546Z,6.50
2017-11-07T02:39:28.106Z,10.47
2017-11-07T02:41:55.612Z,8.77
2017-11-07T02:44:23.113Z,7.30
2017-11-07T02:46:50.640Z,9.47
2017-11-07T02:49:18.142Z,9.27
2017-11-07T02:51:45.645Z,8.33
2017-11-07T02:54:13.179Z,8.60
2017-11-07T02:56:40.676Z,12.03
2017-11-07T02:59:08.168Z,6.13
2017-11-07T03:01:35.721Z,7.47
2017-11-07T03:04:03.307Z,7.50
2017-11-07T03:06:30.898Z,9.03
2017-11-07T03:08:58.450Z,6.47
2017-11-07T03:11:25.952Z,10.73
2017-11-07T03:13:53.465Z,7.23
2017-11-07T03:16:20.997Z,8.03
2017-11-07T03:18:48.640Z,6.90
2017-11-07T03:21:16.933Z,7.43
2017-11-07T03:23:44.442Z,7.13
2017-11-07T03:26:11.945Z,7.67
2017-11-07T03:28:39.473Z,4.43
2017-11-07T03:31:07.238Z,9.93
2017-11-07T03:33:34.750Z,9.57
2017-11-07T03:36:02.872Z,6.87
2017-11-07T03:38:30.392Z,6.50
2017-11-07T03:40:57.909Z,6.40
2017-11-07T03:43:25.436Z,6.97
2017-11-07T03:45:52.932Z,5.90
2017-11-07T03:48:21.206Z,5.27
2017-11-07T03:50:49.505Z,7.30
2017-11-07T03:53:17.013Z,6.07
2017-11-07T03:55:44.528Z,6.40
2017-11-07T03:58:12.061Z,6.73
2017-11-07T04:00:40.329Z,8.00
2017-11-07T04:03:08.596Z,7.90
2017-11-07T04:05:36.123Z,6.43
2017-11-07T04:08:03.628Z,7.30
2017-11-07T04:10:31.134Z,7.23
2017-11-07T04:12:58.669Z,7.73
2017-11-07T04:15:28.138Z,4.87
2017-11-07T04:17:55.682Z,7.60
2017-11-07T04:20:23.189Z,7.43
2017-11-07T04:22:50.694Z,8.57
2017-11-07T04:25:18.223Z,5.97
2017-11-07T04:27:45.721Z,6.00
2017-11-07T04:30:13.221Z,5.93
2017-11-07T04:32:40.753Z,5.30
2017-11-07T04:35:08.264Z,5.73
2017-11-07T04:37:35.765Z,4.60
2017-11-07T04:40:03.287Z,7.47
2017-11-07T04:42:30.781Z,6.50
2017-11-07T04:44:58.314Z,7.87
2017-11-07T04:47:25.819Z,7.73
2017-11-07T04:49:54.092Z,7.20
2017-11-07T04:52:22.378Z,7.03
2017-11-07T04:54:50.648Z,5.20
2017-11-07T04:57:18.944Z,6.50
2017-11-07T04:59:46.453Z,5.63
2017-11-07T05:02:13.952Z,5.30
2017-11-07T05:04:41.474Z,5.90
2017-11-07T05:07:08.995Z,9.40
2017-11-07T05:09:36.520Z,5.47
2017-11-07T05:12:04.055Z,5.30
2017-11-07T05:14:31.557Z,15.30
2017-11-07T05:16:59.822Z,8.10
2017-11-07T05:19:28.133Z,4.97
2017-11-07T05:21:55.627Z,5.40
2017-11-07T05:24:23.128Z,6.33
2017-11-07T05:26:51.443Z,5.93
2017-11-07T05:29:18.983Z,5.77
2017-11-07T05:31:46.597Z,6.67
2017-11-07T05:34:14.252Z,5.47
2017-11-07T05:36:41.758Z,8.23
2017-11-07T05:39:09.261Z,7.73
2017-11-07T05:41:36.793Z,5.87
2017-11-07T05:44:04.303Z,8.30
2017-11-07T05:46:32.568Z,5.00
2017-11-07T05:49:00.089Z,6.57
2017-11-07T05:51:27.593Z,6.63
2017-11-07T05:53:55.096Z,5.00
2017-11-07T05:56:22.702Z,5.53
2017-11-07T05:58:52.190Z,6.63
2017-11-07T06:01:19.713Z,9.43
2017-11-07T06:03:47.254Z,6.00
2017-11-07T06:06:14.764Z,5.87
2017-11-07T06:08:42.336Z,5.03
2017-11-07T06:11:09.857Z,8.43
2017-11-07T06:13:37.900Z,7.80
2017-11-07T06:16:06.383Z,6.63
2017-11-07T06:18:35.368Z,7.30
2017-11-07T06:21:03.652Z,7.73
2017-11-07T06:23:31.182Z,6.33
2017-11-07T06:25:58.726Z,6.13
2017-11-07T06:28:26.232Z,7.03
2017-11-07T06:30:54.582Z,6.70
2017-11-07T06:33:22.090Z,5.90
2017-11-07T06:35:50.365Z,6.63
2017-11-07T06:38:18.746Z,5.20
2017-11-07T06:40:46.240Z,7.70
2017-11-07T06:43:13.742Z,8.30
2017-11-07T06:45:41.265Z,8.87
2017-11-07T06:48:08.765Z,6.57
2017-11-07T06:50:37.228Z,7.37
2017-11-07T06:53:04.725Z,7.40
2017-11-07T06:55:32.317Z,7.80
2017-11-07T06:57:59.863Z,6.03
2017-11-07T07:00:27.363Z,8.63
2017-11-07T07:02:54.857Z,5.40
2017-11-07T07:05:23.145Z,6.33
2017-11-07T07:07:50.646Z,7.83
2017-11-07T07:10:18.184Z,11.53
2017-11-07T07:12:45.782Z,6.97
2017-11-07T07:15:13.300Z,7.93
2017-11-07T07:17:40.833Z,6.90
2017-11-07T07:20:09.099Z,9.70
2017-11-07T07:22:37.360Z,7.57
2017-11-07T07:25:04.887Z,5.53
2017-11-07T07:27:32.418Z,9.00
2017-11-07T07:29:59.912Z,6.50
2017-11-07T07:32:27.432Z,7.23
2017-11-07T07:34:54.933Z,6.57
2017-11-07T07:37:22.433Z,6.23
2017-11-07T07:39:50.722Z,7.93
2017-11-07T07:42:18.225Z,7.13
2017-11-07T07:44:45.736Z,8.27
2017-11-07T07:47:14.044Z,7.27
2017-11-07T07:49:41.548Z,7.70
2017-11-07T07:52:09.057Z,8.70
2017-11-07T07:54:36.585Z,12.40
2017-11-07T07:57:04.857Z,11.90
2017-11-07T07:59:33.174Z,11.17
2017-11-07T08:02:00.676Z,11.00
2017-11-07T08:04:28.186Z,9.10
2017-11-07T08:06:55.717Z,8.93
2017-11-07T08:09:23.986Z,8.50
2017-11-07T08:11:51.544Z,9.97
2017-11-07T08:14:19.063Z,9.40
2017-11-07T08:16:46.577Z,11.67
2017-11-07T08:19:14.875Z,10.33
2017-11-07T08:21:42.388Z,11.00
2017-11-07T08:24:09.894Z,12.43
2017-11-07T08:26:37.421Z,12.83
2017-11-07T08:29:04.934Z,17.00
2017-11-07T08:31:32.461Z,9.63
2017-11-07T08:34:00.724Z,12.30
2017-11-07T08:36:28.234Z,11.37
2017-11-07T08:38:55.776Z,9.97
2017-11-07T08:41:23.282Z,12.23
2017-11-07T08:43:50.785Z,13.10
2017-11-07T08:46:18.342Z,11.17
2017-11-07T08:48:45.847Z,9.13
2017-11-07T08:51:13.364Z,13.10
2017-11-07T08:53:40.909Z,9.77
2017-11-07T08:56:09.185Z,14.87
2017-11-07T08:58:37.462Z,11.07
2017-11-07T09:01:05.764Z,13.50
2017-11-07T09:03:33.734Z,12.17
2017-11-07T09:06:01.245Z,15.07
2017-11-07T09:08:28.775Z,12.00
2017-11-07T09:10:56.281Z,13.20
2017-11-07T09:13:23.783Z,13.97
2017-11-07T09:15:51.317Z,13.70
2017-11-07T09:18:18.821Z,14.53
2017-11-07T09:20:46.340Z,12.00
2017-11-07T09:23:13.892Z,11.17
2017-11-07T09:25:42.170Z,16.40
2017-11-07T09:28:09.692Z,11.60
2017-11-07T09:30:37.236Z,11.07
2017-11-07T09:33:04.749Z,13.43
2017-11-07T09:35:32.271Z,10.90
2017-11-07T09:37:59.809Z,14.90
2017-11-07T09:40:27.333Z,11.93
2017-11-07T09:42:54.845Z,13.63
2017-11-07T09:45:22.387Z,16.60
2017-11-07T09:47:49.900Z,13.30
2017-11-07T09:50:18.176Z,10.83
2017-11-07T09:52:46.469Z,12.60
2017-11-07T09:55:13.978Z,16.00
2017-11-07T09:57:41.482Z,14.80
2017-11-07T10:00:09.012Z,13.07
2017-11-07T10:02:36.519Z,14.07
2017-11-07T10:05:04.065Z,12.43
2017-11-07T10:07:31.579Z,14.30
2017-11-07T10:09:59.870Z,14.77
2017-11-07T10:12:28.184Z,12.20
2017-11-07T10:14:55.706Z,13.50
2017-11-07T10:17:23.212Z,14.40
2017-11-07T10:19:50.805Z,13.47
2017-11-07T10:22:18.313Z,15.50
2017-11-07T10:24:45.824Z,17.23
2017-11-07T10:27:13.350Z,12.20
2017-11-07T10:29:40.901Z,13.40
2017-11-07T10:32:08.412Z,16.40
2017-11-07T10:34:35.956Z,13.03
2017-11-07T10:37:03.463Z,13.43
2017-11-07T10:39:31.742Z,11.60
2017-11-07T10:41:59.291Z,14.63
2017-11-07T10:44:27.582Z,14.07
2017-11-07T10:46:55.866Z,19.00
2017-11-07T10:49:23.413Z,12.70
2017-11-07T10:51:51.694Z,13.83
2017-11-07T10:54:19.215Z,15.00
2017-11-07T10:56:46.750Z,12.57
2017-11-07T10:59:14.263Z,12.77
2017-11-07T11:01:41.769Z,15.37
2017-11-07T11:04:09.305Z,12.13
2017-11-07T11:06:36.813Z,14.70
2017-11-07T11:09:04.321Z,14.20
2017-11-07T11:11:31.857Z,13.40
2017-11-07T11:14:00.134Z,15.70
2017-11-07T11:16:28.413Z,16.33
2017-11-07T11:18:56.716Z,14.00
2017-11-07T11:21:24.221Z,14.77
2017-11-07T11:23:51.770Z,15.87
2017-11-07T11:26:19.314Z,16.00
2017-11-07T11:28:46.826Z,19.57
2017-11-07T11:31:14.408Z,16.47
2017-11-07T11:33:41.949Z,13.33
2017-11-07T11:36:09.459Z,13.90
2017-11-07T11:38:36.966Z,19.07
2017-11-07T11:41:05.270Z,16.13
2017-11-07T11:43:32.784Z,16.50
2017-11-07T11:46:00.292Z,13.13
2017-11-07T11:48:27.834Z,18.97
2017-11-07T11:50:56.110Z,14.60
2017-11-07T11:53:24.423Z,18.00
2017-11-07T11:55:51.944Z,17.20
2017-11-07T11:58:19.444Z,14.43
2017-11-07T12:00:46.982Z,17.00
2017-11-07T12:03:14.489Z,15.13
2017-11-07T12:05:41.997Z,18.50
2017-11-07T12:08:09.533Z,13.00
2017-11-07T12:10:37.816Z,15.60
2017-11-07T12:13:06.094Z,18.60
2017-11-07T12:15:34.398Z,17.57
2017-11-07T12:18:01.916Z,15.60
2017-11-07T12:20:29.465Z,14.60
2017-11-07T12:22:56.993Z,19.10
2017-11-07T12:25:24.502Z,16.93
2017-11-07T12:27:52.050Z,16.30
2017-11-07T12:30:19.622Z,19.80
2017-11-07T12:32:47.171Z,18.57
2017-11-07T12:35:14.686Z,18.40
2017-11-07T12:37:42.196Z,19.77
2017-11-07T12:40:09.766Z,16.67
2017-11-07T12:42:38.056Z,19.13
2017-11-07T12:45:05.574Z,19.23
2017-11-07T12:47:33.117Z,20.70
2017-11-07T12:50:12.372Z,18.30
2017-11-07T12:52:39.998Z,18.00
2017-11-07T12:55:07.516Z,16.67
2017-11-07T12:57:35.805Z,19.00
2017-11-07T13:00:04.111Z,15.90
2017-11-07T13:02:31.618Z,19.53
2017-11-07T13:04:59.129Z,14.60
2017-11-07T13:07:26.669Z,14.53
2017-11-07T13:09:54.191Z,16.97
2017-11-07T13:12:21.716Z,17.80
2017-11-07T13:14:49.271Z,17.17
2017-11-07T13:17:16.784Z,18.00
2017-11-07T13:19:44.297Z,20.13
2017-11-07T13:22:11.845Z,19.10
2017-11-07T13:24:39.370Z,19.27
2017-11-07T13:27:07.682Z,17.20
2017-11-07T13:29:35.199Z,18.77
2017-11-07T13:32:03.471Z,17.10
2017-11-07T13:34:31.008Z,17.60
2017-11-07T13:36:58.511Z,18.50
2017-11-07T13:39:26.801Z,23.43
2017-11-07T13:41:54.348Z,17.60
2017-11-07T13:44:22.624Z,19.00
2017-11-07T13:46:50.920Z,16.90
2017-11-07T13:49:18.448Z,18.10
2017-11-07T13:51:45.962Z,18.93
2017-11-07T13:54:13.481Z,19.80
2017-11-07T13:56:41.783Z,20.23
2017-11-07T13:59:09.287Z,20.70
2017-11-07T14:01:36.836Z,21.93
2017-11-07T14:04:04.357Z,15.60
2017-11-07T14:06:31.901Z,19.63
2017-11-07T14:08:59.451Z,18.83
2017-11-07T14:11:27.734Z,21.90
2017-11-07T14:13:56.010Z,20.13
2017-11-07T14:16:24.316Z,17.37
2017-11-07T14:18:51.826Z,23.50
2017-11-07T14:21:19.360Z,21.60
2017-11-07T14:23:46.921Z,20.40
2017-11-07T14:26:14.428Z,18.87
2017-11-07T14:28:41.950Z,19.00
2017-11-07T14:31:09.497Z,19.37
2017-11-07T14:33:37.004Z,19.67
2017-11-07T14:36:04.529Z,20.90
2017-11-07T14:38:32.073Z,20.80
2017-11-07T14:40:59.577Z,22.53
2017-11-07T14:43:27.096Z,21.23
2017-11-07T14:45:54.653Z,26.37
2017-11-07T14:48:22.177Z,20.07
2017-11-07T14:50:49.684Z,21.63
2017-11-07T14:53:17.227Z,23.30
2017-11-07T14:55:44.736Z,18.23
2017-11-07T14:58:13.004Z,16.77
2017-11-07T15:00:40.545Z,22.43
2017-11-07T15:03:08.824Z,22.00
2017-11-07T15:05:36.372Z,23.17
2017-11-07T15:08:03.877Z,21.07
2017-11-07T15:10:31.376Z,20.17
2017-11-07T15:12:58.912Z,21.17
2017-11-07T15:15:26.439Z,20.00
2017-11-07T15:17:54.713Z,21.70
2017-11-07T15:20:22.267Z,21.70
2017-11-07T15:22:49.776Z,21.67
2017-11-07T15:25:17.290Z,24.43
2017-11-07T15:27:44.825Z,20.73
2017-11-07T15:30:12.354Z,20.90
2017-11-07T15:32:39.892Z,20.90
2017-11-07T15:35:08.169Z,21.60
2017-11-07T15:37:36.444Z,21.17
2017-11-07T15:40:04.740Z,20.13
2017-11-07T15:42:32.254Z,25.43
2017-11-07T15:44:59.782Z,20.33
2017-11-07T15:47:27.291Z,21.43
2017-11-07T15:49:55.563Z,23.50
2017-11-07T15:52:23.870Z,21.97
2017-11-07T15:54:51.384Z,23.70
2017-11-07T15:57:18.903Z,26.00
2017-11-07T15:59:46.436Z,20.77
2017-11-07T16:02:14.705Z,19.87
2017-11-07T16:04:42.982Z,19.80
2017-11-07T16:07:11.279Z,19.50
2017-11-07T16:09:38.843Z,22.00
2017-11-07T16:12:06.352Z,23.87
2017-11-07T16:14:33.872Z,19.77
2017-11-07T16:17:01.386Z,21.30
2017-11-07T16:19:28.929Z,29.10
2017-11-07T16:21:56.424Z,22.57
2017-11-07T16:24:24.700Z,24.47
2017-11-07T16:26:52.995Z,23.20
2017-11-07T16:29:20.512Z,20.30
2017-11-07T16:31:48.034Z,22.23
2017-11-07T16:34:15.567Z,25.70
2017-11-07T16:36:43.081Z,26.10
2017-11-07T16:39:10.593Z,29.07
2017-11-07T16:41:38.121Z,23.30
2017-11-07T16:44:06.400Z,22.87
2017-11-07T16:46:34.701Z,23.47
2017-11-07T16:49:02.230Z,21.37
2017-11-07T16:51:29.732Z,25.83
2017-11-07T16:53:57.261Z,28.87
2017-11-07T16:56:25.543Z,28.30
2017-11-07T16:58:53.822Z,23.13
2017-11-07T17:01:22.276Z,23.30
2017-11-07T17:03:49.788Z,25.97
2017-11-07T17:06:17.465Z,20.17
2017-11-07T17:08:45.016Z,24.00
2017-11-07T17:11:12.781Z,27.30
2017-11-07T17:13:40.355Z,26.77
2017-11-07T17:16:08.207Z,24.90
2017-11-07T17:18:35.720Z,25.43
2017-11-07T17:21:03.225Z,29.57
2017-11-07T17:23:30.956Z,25.57
2017-11-07T17:25:58.510Z,30.77
2017-11-07T17:28:26.051Z,26.47
2017-11-07T17:30:53.593Z,26.90
2017-11-07T17:33:21.117Z,31.70
2017-11-07T17:35:48.862Z,26.13
2017-11-07T17:38:16.396Z,25.87
2017-11-07T17:40:43.900Z,29.60
2017-11-07T17:43:11.437Z,30.03
2017-11-07T17:45:38.963Z,30.33
2017-11-07T17:48:06.507Z,30.60
2017-11-07T17:50:34.017Z,27.73
2017-11-07T17:53:02.378Z,33.67
2017-11-07T17:55:30.019Z,27.80
2017-11-07T17:57:57.630Z,30.20
2017-11-07T18:00:25.193Z,28.63
2017-11-07T18:02:52.704Z,26.67
2017-11-07T18:05:20.245Z,28.03
2017-11-07T18:07:47.760Z,25.87
2017-11-07T18:10:16.034Z,30.07
2017-11-07T18:12:43.713Z,33.43
2017-11-07T18:15:11.237Z,30.83
2017-11-07T18:17:38.742Z,31.90
2017-11-07T18:20:06.305Z,28.23
2017-11-07T18:22:33.817Z,35.10
2017-11-07T18:25:01.367Z,30.23
2017-11-07T18:27:28.912Z,28.37
2017-11-07T18:29:57.293Z,30.13
2017-11-07T18:32:24.824Z,31.50
2017-11-07T18:34:52.451Z,30.70
2017-11-07T18:37:19.973Z,33.10
2017-11-07T18:39:47.592Z,34.17
2017-11-07T18:42:15.242Z,31.33
2017-11-07T18:44:43.570Z,29.53
2017-11-07T18:47:11.330Z,28.50
2017-11-07T18:49:38.845Z,33.93
2017-11-07T18:52:07.124Z,37.10
2017-11-07T18:54:34.701Z,32.37
2017-11-07T18:57:02.319Z,31.07
2017-11-07T18:59:29.834Z,27.57
2017-11-07T19:01:57.474Z,31.83
2017-11-07T19:04:25.029Z,28.70
2017-11-07T19:06:52.668Z,29.27
2017-11-07T19:09:20.605Z,29.13
2017-11-07T19:11:48.187Z,28.30
2017-11-07T19:14:15.794Z,32.40
2017-11-07T19:16:43.372Z,31.00
2017-11-07T19:19:11.026Z,33.63
2017-11-07T19:21:38.773Z,37.63
2017-11-07T19:24:06.428Z,35.00
2017-11-07T19:26:34.710Z,34.53
2017-11-07T19:29:03.005Z,33.03
2017-11-07T19:31:30.545Z,28.50
2017-11-07T19:33:58.082Z,32.53
2017-11-07T19:36:25.747Z,32.50
2017-11-07T19:38:53.274Z,28.70
2017-11-07T19:41:21.442Z,32.27
2017-11-07T19:43:49.325Z,30.97
2017-11-07T19:46:16.975Z,28.90
2017-11-07T19:48:44.622Z,32.43
2017-11-07T19:51:12.606Z,35.27
2017-11-07T19:53:40.708Z,32.20
2017-11-07T19:56:08.896Z,31.50
2017-11-07T19:58:36.809Z,32.90
2017-11-07T20:01:04.547Z,30.07
2017-11-07T20:03:32.182Z,29.53
2017-11-07T20:06:00.564Z,30.87
2017-11-07T20:08:30.487Z,31.13
2017-11-07T20:10:59.268Z,38.40
2017-11-07T20:13:26.881Z,32.37
2017-11-07T20:15:54.775Z,33.27
2017-11-07T20:18:22.644Z,33.03
2017-11-07T20:20:50.426Z,39.90
2017-11-07T20:23:18.376Z,33.70
2017-11-07T20:25:47.276Z,35.70
2017-11-07T20:28:15.192Z,36.00
2017-11-07T20:30:43.102Z,38.03
2017-11-07T20:33:11.480Z,39.33
2017-11-07T20:35:39.370Z,30.37
2017-11-07T20:38:06.961Z,32.00
2017-11-07T20:40:35.796Z,39.47
2017-11-07T20:43:04.225Z,34.90
2017-11-07T20:45:32.720Z,35.03
2017-11-07T20:48:01.374Z,30.13
2017-11-07T20:50:29.879Z,34.97
2017-11-07T20:52:59.283Z,39.03
2017-11-07T20:55:28.013Z,36.63
2017-11-07T20:57:55.592Z,33.57
2017-11-07T21:00:24.428Z,33.60
2017-11-07T21:02:52.681Z,34.30
2017-11-07T21:05:20.209Z,36.57
2017-11-07T21:07:48.101Z,39.90
2017-11-07T21:10:16.418Z,32.80
2017-11-07T21:12:44.709Z,34.00
2017-11-07T21:15:12.279Z,34.40
2017-11-07T21:17:39.823Z,29.73
2017-11-07T21:20:08.161Z,33.23
2017-11-07T21:22:35.722Z,27.97
2017-11-07T21:25:03.241Z,36.03
2017-11-07T21:27:30.774Z,30.73
2017-11-07T21:29:58.307Z,31.70
2017-11-07T21:32:26.251Z,33.10
2017-11-07T21:34:56.529Z,36.67
2017-11-07T21:37:24.058Z,31.00
2017-11-07T21:39:51.564Z,39.30
2017-11-07T21:42:19.108Z,28.97
2017-11-07T21:44:47.401Z,34.20
2017-11-07T21:47:14.945Z,30.47
2017-11-07T21:49:43.254Z,37.43
2017-11-07T21:52:10.758Z,35.40
2017-11-07T21:54:38.260Z,36.10
2017-11-07T21:57:05.800Z,37.57
2017-11-07T21:59:34.073Z,36.97
2017-11-07T22:02:02.345Z,33.13
2017-11-07T22:04:30.643Z,34.83
2017-11-07T22:06:58.178Z,30.23
2017-11-07T22:09:25.689Z,43.03
2017-11-07T22:11:54.986Z,36.90
2017-11-07T22:14:22.531Z,29.10
2017-11-07T22:16:53.873Z,35.07
2017-11-07T22:19:21.397Z,40.60
2017-11-07T22:21:49.717Z,38.93
2017-11-07T22:24:17.247Z,30.50
2017-11-07T22:26:44.752Z,30.17
2017-11-07T22:29:12.281Z,30.77
2017-11-07T22:31:40.581Z,31.70
2017-11-07T22:34:08.085Z,33.30
2017-11-07T22:36:35.596Z,37.00
2017-11-07T22:39:03.138Z,35.23
2017-11-07T22:41:30.661Z,32.23
2017-11-07T22:43:58.171Z,34.17
2017-11-07T22:46:25.700Z,35.00
2017-11-07T22:48:53.972Z,28.60
2017-11-07T22:51:22.245Z,33.03
2017-11-07T22:53:49.789Z,32.20
2017-11-07T22:56:17.301Z,31.53
2017-11-07T22:58:44.832Z,28.37
2017-11-07T23:01:12.384Z,32.33
2017-11-07T23:03:40.669Z,33.10
2017-11-07T23:06:08.979Z,31.63
2017-11-07T23:08:36.496Z,32.70
2017-11-07T23:11:04.001Z,36.00
2017-11-07T23:13:31.544Z,33.80
2017-11-07T23:15:59.057Z,39.27
2017-11-07T23:18:26.577Z,36.87
2017-11-07T23:20:54.117Z,34.20
2017-11-07T23:23:22.398Z,33.37
2017-11-07T23:25:49.910Z,35.47
2017-11-07T23:28:17.477Z,35.07
2017-11-07T23:30:44.991Z,34.53
2017-11-07T23:33:12.509Z,36.07
2017-11-07T23:35:40.048Z,33.40
2017-11-07T23:38:08.329Z,36.50
2017-11-07T23:40:35.858Z,37.63
2017-11-07T23:43:03.375Z,33.80
2017-11-07T23:45:30.894Z,34.73
2017-11-07T23:47:58.481Z,29.70
2017-11-07T23:50:26.002Z,29.00
2017-11-07T23:52:53.614Z,29.83
2017-11-07T23:55:21.141Z,32.10
2017-11-07T23:57:48.653Z,27.07
